sensor_id;sensor_type;location;lat;lon;timestamp;P1;durP1;ratioP1;P2;durP2;ratioP2
74245;SDS011;62601;51.044;13.788;2023-04-24T00:01:22;4.60;;;4.20;;
74245;SDS011;62601;51.044;13.788;2023-04-24T00:03:42;7.53;;;4.60;;
74245;SDS011;62601;51.044;13.788;2023-04-24T00:06:02;5.23;;;4.40;;
74245;SDS011;62601;51.044;13.788;2023-04-24T00:08:24;5.90;;;4.40;;
74245;SDS011;62601;51.044;13.788;2023-04-24T00:10:47;4.27;;;3.80;;
74245;SDS011;62601;51.044;13.788;2023-04-24T00:13:08;5.33;;;4.83;;
74245;SDS011;62601;51.044;13.788;2023-04-24T00:15:28;4.90;;;4.50;;
74245;SDS011;62601;51.044;13.788;2023-04-24T00:17:48;4.93;;;4.43;;
74245;SDS011;62601;51.044;13.788;2023-04-24T00:20:09;4.43;;;4.03;;
74245;SDS011;62601;51.044;13.788;2023-04-24T00:22:30;4.30;;;3.90;;
74245;SDS011;62601;51.044;13.788;2023-04-24T00:24:50;4.50;;;4.10;;
74245;SDS011;62601;51.044;13.788;2023-04-24T00:27:12;5.73;;;4.47;;
74245;SDS011;62601;51.044;13.788;2023-04-24T00:29:33;4.53;;;4.13;;
74245;SDS011;62601;51.044;13.788;2023-04-24T00:31:54;6.10;;;4.50;;
74245;SDS011;62601;51.044;13.788;2023-04-24T00:34:16;6.47;;;4.20;;
74245;SDS011;62601;51.044;13.788;2023-04-24T00:36:37;6.40;;;3.97;;
74245;SDS011;62601;51.044;13.788;2023-04-24T00:38:58;6.00;;;4.17;;
74245;SDS011;62601;51.044;13.788;2023-04-24T00:41:19;4.53;;;3.90;;
74245;SDS011;62601;51.044;13.788;2023-04-24T00:43:44;5.77;;;4.60;;
74245;SDS011;62601;51.044;13.788;2023-04-24T00:46:04;5.80;;;4.10;;
74245;SDS011;62601;51.044;13.788;2023-04-24T00:48:25;4.93;;;4.50;;
74245;SDS011;62601;51.044;13.788;2023-04-24T00:50:47;5.40;;;5.00;;
74245;SDS011;62601;51.044;13.788;2023-04-24T00:53:08;8.07;;;4.83;;
74245;SDS011;62601;51.044;13.788;2023-04-24T00:55:30;5.00;;;4.50;;
74245;SDS011;62601;51.044;13.788;2023-04-24T00:57:54;6.00;;;5.00;;
74245;SDS011;62601;51.044;13.788;2023-04-24T01:00:14;5.60;;;5.13;;
74245;SDS011;62601;51.044;13.788;2023-04-24T01:02:35;4.73;;;4.33;;
74245;SDS011;62601;51.044;13.788;2023-04-24T01:04:57;5.83;;;5.23;;
74245;SDS011;62601;51.044;13.788;2023-04-24T01:07:19;7.30;;;5.00;;
74245;SDS011;62601;51.044;13.788;2023-04-24T01:09:41;5.43;;;5.00;;
74245;SDS011;62601;51.044;13.788;2023-04-24T01:12:02;5.50;;;5.00;;
74245;SDS011;62601;51.044;13.788;2023-04-24T01:14:24;7.20;;;4.87;;
74245;SDS011;62601;51.044;13.788;2023-04-24T01:16:45;5.77;;;4.80;;
74245;SDS011;62601;51.044;13.788;2023-04-24T01:19:06;5.27;;;4.70;;
74245;SDS011;62601;51.044;13.788;2023-04-24T01:21:28;4.87;;;4.43;;
74245;SDS011;62601;51.044;13.788;2023-04-24T01:23:51;6.07;;;4.73;;
74245;SDS011;62601;51.044;13.788;2023-04-24T01:26:12;5.90;;;5.00;;
74245;SDS011;62601;51.044;13.788;2023-04-24T01:28:34;5.37;;;4.87;;
74245;SDS011;62601;51.044;13.788;2023-04-24T01:30:55;4.83;;;4.43;;
74245;SDS011;62601;51.044;13.788;2023-04-24T01:33:17;5.60;;;4.90;;
74245;SDS011;62601;51.044;13.788;2023-04-24T01:35:38;6.27;;;5.07;;
74245;SDS011;62601;51.044;13.788;2023-04-24T01:37:59;5.10;;;4.70;;
74245;SDS011;62601;51.044;13.788;2023-04-24T01:40:19;6.00;;;5.50;;
74245;SDS011;62601;51.044;13.788;2023-04-24T01:42:40;6.60;;;6.00;;
74245;SDS011;62601;51.044;13.788;2023-04-24T01:45:02;6.37;;;5.50;;
74245;SDS011;62601;51.044;13.788;2023-04-24T01:47:23;5.40;;;4.90;;
74245;SDS011;62601;51.044;13.788;2023-04-24T01:49:45;8.83;;;5.13;;
74245;SDS011;62601;51.044;13.788;2023-04-24T01:52:05;5.70;;;4.77;;
74245;SDS011;62601;51.044;13.788;2023-04-24T01:54:25;5.60;;;4.97;;
74245;SDS011;62601;51.044;13.788;2023-04-24T01:56:47;7.57;;;4.97;;
74245;SDS011;62601;51.044;13.788;2023-04-24T01:59:07;6.63;;;4.80;;
74245;SDS011;62601;51.044;13.788;2023-04-24T02:01:32;5.30;;;4.80;;
74245;SDS011;62601;51.044;13.788;2023-04-24T02:03:55;7.37;;;5.37;;
74245;SDS011;62601;51.044;13.788;2023-04-24T02:06:16;5.70;;;5.03;;
74245;SDS011;62601;51.044;13.788;2023-04-24T02:08:36;8.73;;;7.73;;
74245;SDS011;62601;51.044;13.788;2023-04-24T02:10:56;6.00;;;5.13;;
74245;SDS011;62601;51.044;13.788;2023-04-24T02:13:16;7.10;;;5.60;;
74245;SDS011;62601;51.044;13.788;2023-04-24T02:15:36;6.13;;;5.57;;
74245;SDS011;62601;51.044;13.788;2023-04-24T02:17:56;6.50;;;5.87;;
74245;SDS011;62601;51.044;13.788;2023-04-24T02:20:16;5.80;;;5.20;;
74245;SDS011;62601;51.044;13.788;2023-04-24T02:22:38;6.27;;;4.83;;
74245;SDS011;62601;51.044;13.788;2023-04-24T02:24:58;6.00;;;5.27;;
74245;SDS011;62601;51.044;13.788;2023-04-24T02:27:18;6.27;;;5.03;;
74245;SDS011;62601;51.044;13.788;2023-04-24T02:29:39;6.33;;;4.93;;
74245;SDS011;62601;51.044;13.788;2023-04-24T02:31:59;7.10;;;6.40;;
74245;SDS011;62601;51.044;13.788;2023-04-24T02:34:19;7.33;;;5.90;;
74245;SDS011;62601;51.044;13.788;2023-04-24T02:36:39;5.30;;;4.80;;
74245;SDS011;62601;51.044;13.788;2023-04-24T02:38:59;5.90;;;5.30;;
74245;SDS011;62601;51.044;13.788;2023-04-24T02:41:19;6.47;;;5.13;;
74245;SDS011;62601;51.044;13.788;2023-04-24T02:43:41;5.37;;;4.83;;
74245;SDS011;62601;51.044;13.788;2023-04-24T02:46:02;5.90;;;5.30;;
74245;SDS011;62601;51.044;13.788;2023-04-24T02:48:23;6.50;;;5.90;;
74245;SDS011;62601;51.044;13.788;2023-04-24T02:50:45;6.97;;;6.20;;
74245;SDS011;62601;51.044;13.788;2023-04-24T02:53:06;7.40;;;6.47;;
74245;SDS011;62601;51.044;13.788;2023-04-24T02:55:28;6.13;;;5.53;;
74245;SDS011;62601;51.044;13.788;2023-04-24T02:57:48;5.83;;;5.23;;
74245;SDS011;62601;51.044;13.788;2023-04-24T03:00:10;6.23;;;5.17;;
74245;SDS011;62601;51.044;13.788;2023-04-24T03:02:32;6.43;;;5.73;;
74245;SDS011;62601;51.044;13.788;2023-04-24T03:04:53;5.50;;;4.97;;
74245;SDS011;62601;51.044;13.788;2023-04-24T03:07:15;5.97;;;5.10;;
74245;SDS011;62601;51.044;13.788;2023-04-24T03:09:37;7.73;;;5.70;;
74245;SDS011;62601;51.044;13.788;2023-04-24T03:11:59;7.90;;;5.77;;
74245;SDS011;62601;51.044;13.788;2023-04-24T03:14:20;5.90;;;5.30;;
74245;SDS011;62601;51.044;13.788;2023-04-24T03:16:42;6.50;;;5.80;;
74245;SDS011;62601;51.044;13.788;2023-04-24T03:19:03;6.60;;;5.80;;
74245;SDS011;62601;51.044;13.788;2023-04-24T03:21:24;7.27;;;5.57;;
74245;SDS011;62601;51.044;13.788;2023-04-24T03:23:44;6.40;;;5.80;;
74245;SDS011;62601;51.044;13.788;2023-04-24T03:26:06;7.60;;;5.87;;
74245;SDS011;62601;51.044;13.788;2023-04-24T03:28:27;6.13;;;5.53;;
74245;SDS011;62601;51.044;13.788;2023-04-24T03:30:48;6.70;;;5.70;;
74245;SDS011;62601;51.044;13.788;2023-04-24T03:33:10;6.72;;;6.03;;
74245;SDS011;62601;51.044;13.788;2023-04-24T03:35:31;6.40;;;5.80;;
74245;SDS011;62601;51.044;13.788;2023-04-24T03:37:51;8.20;;;6.32;;
74245;SDS011;62601;51.044;13.788;2023-04-24T03:40:12;7.33;;;6.57;;
74245;SDS011;62601;51.044;13.788;2023-04-24T03:42:32;9.63;;;6.35;;
74245;SDS011;62601;51.044;13.788;2023-04-24T03:44:52;6.77;;;6.07;;
74245;SDS011;62601;51.044;13.788;2023-04-24T03:47:12;6.40;;;5.80;;
74245;SDS011;62601;51.044;13.788;2023-04-24T03:49:33;6.20;;;5.60;;
74245;SDS011;62601;51.044;13.788;2023-04-24T03:51:53;7.13;;;6.43;;
74245;SDS011;62601;51.044;13.788;2023-04-24T03:54:13;6.85;;;5.88;;
74245;SDS011;62601;51.044;13.788;2023-04-24T03:56:33;7.43;;;6.70;;
74245;SDS011;62601;51.044;13.788;2023-04-24T03:58:54;7.75;;;6.35;;
74245;SDS011;62601;51.044;13.788;2023-04-24T04:01:15;9.40;;;6.00;;
74245;SDS011;62601;51.044;13.788;2023-04-24T04:03:36;8.30;;;6.50;;
74245;SDS011;62601;51.044;13.788;2023-04-24T04:05:57;6.40;;;5.80;;
74245;SDS011;62601;51.044;13.788;2023-04-24T04:08:17;6.03;;;5.00;;
74245;SDS011;62601;51.044;13.788;2023-04-24T04:10:39;7.82;;;5.78;;
74245;SDS011;62601;51.044;13.788;2023-04-24T04:13:00;6.70;;;6.00;;
74245;SDS011;62601;51.044;13.788;2023-04-24T04:15:22;8.60;;;5.43;;
74245;SDS011;62601;51.044;13.788;2023-04-24T04:17:43;6.07;;;5.50;;
74245;SDS011;62601;51.044;13.788;2023-04-24T04:20:05;6.07;;;5.30;;
74245;SDS011;62601;51.044;13.788;2023-04-24T04:22:26;11.00;;;5.10;;
74245;SDS011;62601;51.044;13.788;2023-04-24T04:24:46;6.50;;;5.00;;
74245;SDS011;62601;51.044;13.788;2023-04-24T04:27:08;6.17;;;4.90;;
74245;SDS011;62601;51.044;13.788;2023-04-24T04:29:28;5.20;;;4.70;;
74245;SDS011;62601;51.044;13.788;2023-04-24T04:31:49;5.53;;;4.90;;
74245;SDS011;62601;51.044;13.788;2023-04-24T04:34:10;8.60;;;5.65;;
74245;SDS011;62601;51.044;13.788;2023-04-24T04:36:32;8.47;;;5.87;;
74245;SDS011;62601;51.044;13.788;2023-04-24T04:38:54;7.30;;;5.65;;
74245;SDS011;62601;51.044;13.788;2023-04-24T04:41:15;7.73;;;5.47;;
74245;SDS011;62601;51.044;13.788;2023-04-24T04:43:35;8.65;;;5.57;;
74245;SDS011;62601;51.044;13.788;2023-04-24T04:45:57;5.13;;;4.10;;
74245;SDS011;62601;51.044;13.788;2023-04-24T04:48:17;4.70;;;4.10;;
74245;SDS011;62601;51.044;13.788;2023-04-24T04:50:38;6.03;;;4.03;;
74245;SDS011;62601;51.044;13.788;2023-04-24T04:52:59;7.27;;;3.90;;
74245;SDS011;62601;51.044;13.788;2023-04-24T04:55:20;5.37;;;4.20;;
74245;SDS011;62601;51.044;13.788;2023-04-24T04:57:42;5.57;;;4.00;;
74245;SDS011;62601;51.044;13.788;2023-04-24T05:00:03;4.80;;;4.20;;
74245;SDS011;62601;51.044;13.788;2023-04-24T05:02:25;4.47;;;3.30;;
74245;SDS011;62601;51.044;13.788;2023-04-24T05:04:45;2.45;;;2.25;;
74245;SDS011;62601;51.044;13.788;2023-04-24T05:07:07;3.17;;;2.80;;
74245;SDS011;62601;51.044;13.788;2023-04-24T05:09:28;4.47;;;2.83;;
74245;SDS011;62601;51.044;13.788;2023-04-24T05:11:50;4.13;;;3.20;;
74245;SDS011;62601;51.044;13.788;2023-04-24T05:14:11;3.57;;;3.23;;
74245;SDS011;62601;51.044;13.788;2023-04-24T05:16:32;3.87;;;3.07;;
74245;SDS011;62601;51.044;13.788;2023-04-24T05:18:53;3.50;;;2.83;;
74245;SDS011;62601;51.044;13.788;2023-04-24T05:21:13;6.50;;;3.30;;
74245;SDS011;62601;51.044;13.788;2023-04-24T05:23:34;4.00;;;3.60;;
74245;SDS011;62601;51.044;13.788;2023-04-24T05:25:54;4.33;;;3.93;;
74245;SDS011;62601;51.044;13.788;2023-04-24T05:28:15;7.57;;;3.97;;
74245;SDS011;62601;51.044;13.788;2023-04-24T05:30:35;3.50;;;2.70;;
74245;SDS011;62601;51.044;13.788;2023-04-24T05:32:55;6.00;;;3.03;;
74245;SDS011;62601;51.044;13.788;2023-04-24T05:35:15;5.43;;;3.50;;
74245;SDS011;62601;51.044;13.788;2023-04-24T05:37:36;4.10;;;2.77;;
74245;SDS011;62601;51.044;13.788;2023-04-24T05:39:56;2.90;;;2.70;;
74245;SDS011;62601;51.044;13.788;2023-04-24T05:42:16;3.33;;;2.83;;
74245;SDS011;62601;51.044;13.788;2023-04-24T05:44:36;4.10;;;2.43;;
74245;SDS011;62601;51.044;13.788;2023-04-24T05:46:56;3.47;;;2.60;;
74245;SDS011;62601;51.044;13.788;2023-04-24T05:49:16;3.57;;;2.60;;
74245;SDS011;62601;51.044;13.788;2023-04-24T05:51:36;2.97;;;2.67;;
74245;SDS011;62601;51.044;13.788;2023-04-24T05:53:57;3.60;;;2.40;;
74245;SDS011;62601;51.044;13.788;2023-04-24T05:56:18;2.63;;;1.90;;
74245;SDS011;62601;51.044;13.788;2023-04-24T05:58:39;2.53;;;2.30;;
74245;SDS011;62601;51.044;13.788;2023-04-24T06:01:00;2.33;;;2.13;;
74245;SDS011;62601;51.044;13.788;2023-04-24T06:03:22;2.10;;;1.90;;
74245;SDS011;62601;51.044;13.788;2023-04-24T06:05:43;1.83;;;1.73;;
74245;SDS011;62601;51.044;13.788;2023-04-24T06:08:03;1.90;;;1.80;;
74245;SDS011;62601;51.044;13.788;2023-04-24T06:10:23;1.63;;;1.53;;
74245;SDS011;62601;51.044;13.788;2023-04-24T06:12:45;2.50;;;1.70;;
74245;SDS011;62601;51.044;13.788;2023-04-24T06:15:05;3.37;;;1.60;;
74245;SDS011;62601;51.044;13.788;2023-04-24T06:17:27;2.13;;;1.40;;
74245;SDS011;62601;51.044;13.788;2023-04-24T06:19:47;4.33;;;1.43;;
74245;SDS011;62601;51.044;13.788;2023-04-24T06:22:08;2.50;;;1.20;;
74245;SDS011;62601;51.044;13.788;2023-04-24T06:24:30;3.70;;;1.40;;
74245;SDS011;62601;51.044;13.788;2023-04-24T06:26:50;3.07;;;1.70;;
74245;SDS011;62601;51.044;13.788;2023-04-24T06:29:11;1.30;;;1.20;;
74245;SDS011;62601;51.044;13.788;2023-04-24T06:31:31;1.23;;;1.13;;
74245;SDS011;62601;51.044;13.788;2023-04-24T06:33:53;1.10;;;1.10;;
74245;SDS011;62601;51.044;13.788;2023-04-24T06:36:15;2.70;;;1.20;;
74245;SDS011;62601;51.044;13.788;2023-04-24T06:38:36;2.07;;;1.23;;
74245;SDS011;62601;51.044;13.788;2023-04-24T06:40:57;1.93;;;1.10;;
74245;SDS011;62601;51.044;13.788;2023-04-24T06:43:19;2.20;;;1.23;;
74245;SDS011;62601;51.044;13.788;2023-04-24T06:45:39;2.43;;;1.03;;
74245;SDS011;62601;51.044;13.788;2023-04-24T06:47:59;1.20;;;0.90;;
74245;SDS011;62601;51.044;13.788;2023-04-24T06:50:20;1.77;;;1.00;;
74245;SDS011;62601;51.044;13.788;2023-04-24T06:52:42;1.10;;;0.80;;
74245;SDS011;62601;51.044;13.788;2023-04-24T06:55:02;1.63;;;1.00;;
74245;SDS011;62601;51.044;13.788;2023-04-24T06:57:24;2.20;;;1.13;;
74245;SDS011;62601;51.044;13.788;2023-04-24T06:59:46;2.50;;;0.90;;
74245;SDS011;62601;51.044;13.788;2023-04-24T07:02:07;1.50;;;1.03;;
74245;SDS011;62601;51.044;13.788;2023-04-24T07:04:29;1.10;;;0.90;;
74245;SDS011;62601;51.044;13.788;2023-04-24T07:06:50;1.70;;;0.90;;
74245;SDS011;62601;51.044;13.788;2023-04-24T07:09:12;1.10;;;0.90;;
74245;SDS011;62601;51.044;13.788;2023-04-24T07:11:33;2.30;;;1.20;;
74245;SDS011;62601;51.044;13.788;2023-04-24T07:13:55;1.93;;;1.10;;
74245;SDS011;62601;51.044;13.788;2023-04-24T07:16:16;3.40;;;1.00;;
74245;SDS011;62601;51.044;13.788;2023-04-24T07:18:38;1.53;;;0.93;;
74245;SDS011;62601;51.044;13.788;2023-04-24T07:20:59;2.83;;;1.20;;
74245;SDS011;62601;51.044;13.788;2023-04-24T07:23:20;0.70;;;0.70;;
74245;SDS011;62601;51.044;13.788;2023-04-24T07:25:42;0.90;;;0.70;;
74245;SDS011;62601;51.044;13.788;2023-04-24T07:28:03;1.87;;;1.00;;
74245;SDS011;62601;51.044;13.788;2023-04-24T07:30:25;2.90;;;1.00;;
74245;SDS011;62601;51.044;13.788;2023-04-24T07:32:46;1.80;;;0.70;;
74245;SDS011;62601;51.044;13.788;2023-04-24T07:35:06;2.10;;;0.70;;
74245;SDS011;62601;51.044;13.788;2023-04-24T07:37:27;0.87;;;0.73;;
74245;SDS011;62601;51.044;13.788;2023-04-24T07:39:48;1.73;;;0.73;;
74245;SDS011;62601;51.044;13.788;2023-04-24T07:42:09;1.23;;;0.87;;
74245;SDS011;62601;51.044;13.788;2023-04-24T07:44:29;1.30;;;0.80;;
74245;SDS011;62601;51.044;13.788;2023-04-24T07:46:51;2.90;;;0.80;;
74245;SDS011;62601;51.044;13.788;2023-04-24T07:49:12;1.77;;;0.70;;
74245;SDS011;62601;51.044;13.788;2023-04-24T07:51:34;1.20;;;0.77;;
74245;SDS011;62601;51.044;13.788;2023-04-24T07:53:54;0.83;;;0.83;;
74245;SDS011;62601;51.044;13.788;2023-04-24T07:56:15;5.40;;;2.80;;
74245;SDS011;62601;51.044;13.788;2023-04-24T07:58:35;1.57;;;1.10;;
74245;SDS011;62601;51.044;13.788;2023-04-24T08:00:55;0.87;;;0.80;;
74245;SDS011;62601;51.044;13.788;2023-04-24T08:03:17;0.97;;;0.90;;
74245;SDS011;62601;51.044;13.788;2023-04-24T08:05:37;3.13;;;0.83;;
74245;SDS011;62601;51.044;13.788;2023-04-24T08:07:58;1.80;;;1.10;;
74245;SDS011;62601;51.044;13.788;2023-04-24T08:10:18;2.37;;;0.93;;
74245;SDS011;62601;51.044;13.788;2023-04-24T08:12:38;2.13;;;0.77;;
74245;SDS011;62601;51.044;13.788;2023-04-24T08:14:58;1.07;;;0.90;;
74245;SDS011;62601;51.044;13.788;2023-04-24T08:17:20;0.73;;;0.70;;
74245;SDS011;62601;51.044;13.788;2023-04-24T08:19:40;1.03;;;0.80;;
74245;SDS011;62601;51.044;13.788;2023-04-24T08:22:00;6.37;;;1.70;;
74245;SDS011;62601;51.044;13.788;2023-04-24T08:24:20;2.40;;;1.00;;
74245;SDS011;62601;51.044;13.788;2023-04-24T08:26:41;1.33;;;0.80;;
74245;SDS011;62601;51.044;13.788;2023-04-24T08:29:04;1.40;;;0.87;;
74245;SDS011;62601;51.044;13.788;2023-04-24T08:31:25;1.47;;;1.03;;
74245;SDS011;62601;51.044;13.788;2023-04-24T08:33:45;1.40;;;0.90;;
74245;SDS011;62601;51.044;13.788;2023-04-24T08:36:05;1.87;;;0.90;;
74245;SDS011;62601;51.044;13.788;2023-04-24T08:38:25;2.03;;;0.90;;
74245;SDS011;62601;51.044;13.788;2023-04-24T08:40:46;1.43;;;0.80;;
74245;SDS011;62601;51.044;13.788;2023-04-24T08:43:06;2.50;;;1.10;;
74245;SDS011;62601;51.044;13.788;2023-04-24T08:45:27;2.43;;;1.00;;
74245;SDS011;62601;51.044;13.788;2023-04-24T08:47:47;1.63;;;0.90;;
74245;SDS011;62601;51.044;13.788;2023-04-24T08:50:08;1.43;;;0.80;;
74245;SDS011;62601;51.044;13.788;2023-04-24T08:52:28;1.93;;;0.90;;
74245;SDS011;62601;51.044;13.788;2023-04-24T08:54:49;2.23;;;0.77;;
74245;SDS011;62601;51.044;13.788;2023-04-24T08:57:09;2.07;;;1.00;;
74245;SDS011;62601;51.044;13.788;2023-04-24T08:59:30;3.87;;;1.30;;
74245;SDS011;62601;51.044;13.788;2023-04-24T09:01:50;4.63;;;2.00;;
74245;SDS011;62601;51.044;13.788;2023-04-24T09:04:11;4.20;;;0.80;;
74245;SDS011;62601;51.044;13.788;2023-04-24T09:06:31;1.90;;;0.73;;
74245;SDS011;62601;51.044;13.788;2023-04-24T09:08:52;2.20;;;0.70;;
74245;SDS011;62601;51.044;13.788;2023-04-24T09:11:12;0.70;;;0.70;;
74245;SDS011;62601;51.044;13.788;2023-04-24T09:13:32;1.47;;;0.80;;
74245;SDS011;62601;51.044;13.788;2023-04-24T09:15:53;1.63;;;0.97;;
74245;SDS011;62601;51.044;13.788;2023-04-24T09:18:13;1.57;;;0.97;;
74245;SDS011;62601;51.044;13.788;2023-04-24T09:20:33;2.70;;;1.20;;
74245;SDS011;62601;51.044;13.788;2023-04-24T09:22:54;1.07;;;0.70;;
74245;SDS011;62601;51.044;13.788;2023-04-24T09:25:14;1.80;;;1.10;;
74245;SDS011;62601;51.044;13.788;2023-04-24T09:27:34;1.17;;;0.77;;
74245;SDS011;62601;51.044;13.788;2023-04-24T09:29:55;0.60;;;0.60;;
74245;SDS011;62601;51.044;13.788;2023-04-24T09:32:19;1.13;;;0.80;;
74245;SDS011;62601;51.044;13.788;2023-04-24T09:34:39;2.03;;;0.80;;
74245;SDS011;62601;51.044;13.788;2023-04-24T09:36:59;3.33;;;1.07;;
74245;SDS011;62601;51.044;13.788;2023-04-24T09:39:19;1.83;;;1.03;;
74245;SDS011;62601;51.044;13.788;2023-04-24T09:41:55;2.00;;;0.80;;
74245;SDS011;62601;51.044;13.788;2023-04-24T09:44:19;1.40;;;0.90;;
74245;SDS011;62601;51.044;13.788;2023-04-24T09:46:41;1.50;;;1.17;;
74245;SDS011;62601;51.044;13.788;2023-04-24T09:49:08;1.97;;;1.33;;
74245;SDS011;62601;51.044;13.788;2023-04-24T09:51:35;1.30;;;0.63;;
74245;SDS011;62601;51.044;13.788;2023-04-24T09:53:55;2.53;;;1.20;;
74245;SDS011;62601;51.044;13.788;2023-04-24T09:56:15;1.33;;;0.80;;
74245;SDS011;62601;51.044;13.788;2023-04-24T09:58:36;0.83;;;0.77;;
74245;SDS011;62601;51.044;13.788;2023-04-24T10:00:56;1.00;;;0.70;;
74245;SDS011;62601;51.044;13.788;2023-04-24T10:03:16;1.23;;;0.70;;
74245;SDS011;62601;51.044;13.788;2023-04-24T10:05:37;1.47;;;1.10;;
74245;SDS011;62601;51.044;13.788;2023-04-24T10:07:59;2.60;;;1.87;;
74245;SDS011;62601;51.044;13.788;2023-04-24T10:10:20;2.10;;;0.90;;
74245;SDS011;62601;51.044;13.788;2023-04-24T10:12:40;1.93;;;0.77;;
74245;SDS011;62601;51.044;13.788;2023-04-24T10:15:00;0.70;;;0.70;;
74245;SDS011;62601;51.044;13.788;2023-04-24T10:17:21;1.00;;;0.73;;
74245;SDS011;62601;51.044;13.788;2023-04-24T10:19:41;0.80;;;0.70;;
74245;SDS011;62601;51.044;13.788;2023-04-24T10:22:02;1.10;;;0.60;;
74245;SDS011;62601;51.044;13.788;2023-04-24T10:24:23;5.73;;;1.00;;
74245;SDS011;62601;51.044;13.788;2023-04-24T10:26:44;1.63;;;0.60;;
74245;SDS011;62601;51.044;13.788;2023-04-24T10:29:04;2.17;;;0.60;;
74245;SDS011;62601;51.044;13.788;2023-04-24T10:31:25;1.10;;;1.00;;
74245;SDS011;62601;51.044;13.788;2023-04-24T10:33:45;1.27;;;0.77;;
74245;SDS011;62601;51.044;13.788;2023-04-24T10:36:06;1.10;;;0.77;;
74245;SDS011;62601;51.044;13.788;2023-04-24T10:38:27;2.10;;;1.00;;
74245;SDS011;62601;51.044;13.788;2023-04-24T10:40:48;1.00;;;0.90;;
74245;SDS011;62601;51.044;13.788;2023-04-24T10:43:08;2.20;;;0.80;;
74245;SDS011;62601;51.044;13.788;2023-04-24T10:45:29;0.80;;;0.80;;
74245;SDS011;62601;51.044;13.788;2023-04-24T10:47:52;0.70;;;0.70;;
74245;SDS011;62601;51.044;13.788;2023-04-24T10:50:13;0.73;;;0.60;;
74245;SDS011;62601;51.044;13.788;2023-04-24T10:52:46;0.70;;;0.70;;
74245;SDS011;62601;51.044;13.788;2023-04-24T10:55:06;0.70;;;0.70;;
74245;SDS011;62601;51.044;13.788;2023-04-24T10:57:27;0.90;;;0.80;;
74245;SDS011;62601;51.044;13.788;2023-04-24T10:59:51;1.23;;;0.80;;
74245;SDS011;62601;51.044;13.788;2023-04-24T11:02:14;1.63;;;0.87;;
74245;SDS011;62601;51.044;13.788;2023-04-24T11:04:34;2.13;;;0.90;;
74245;SDS011;62601;51.044;13.788;2023-04-24T11:06:54;1.30;;;1.10;;
74245;SDS011;62601;51.044;13.788;2023-04-24T11:09:14;1.33;;;0.87;;
74245;SDS011;62601;51.044;13.788;2023-04-24T11:11:35;2.70;;;0.80;;
74245;SDS011;62601;51.044;13.788;2023-04-24T11:21:22;0.90;;;0.80;;
74245;SDS011;62601;51.044;13.788;2023-04-24T11:23:42;2.20;;;0.80;;
74245;SDS011;62601;51.044;13.788;2023-04-24T11:26:12;1.23;;;1.10;;
74245;SDS011;62601;51.044;13.788;2023-04-24T11:28:32;0.90;;;0.80;;
74245;SDS011;62601;51.044;13.788;2023-04-24T11:30:52;3.50;;;0.87;;
74245;SDS011;62601;51.044;13.788;2023-04-24T11:33:12;1.70;;;0.63;;
74245;SDS011;62601;51.044;13.788;2023-04-24T11:35:40;1.37;;;0.90;;
74245;SDS011;62601;51.044;13.788;2023-04-24T11:38:00;1.77;;;1.00;;
74245;SDS011;62601;51.044;13.788;2023-04-24T11:40:21;2.90;;;1.60;;
74245;SDS011;62601;51.044;13.788;2023-04-24T11:42:45;1.17;;;0.80;;
74245;SDS011;62601;51.044;13.788;2023-04-24T11:45:09;0.93;;;0.70;;
74245;SDS011;62601;51.044;13.788;2023-04-24T11:47:29;1.23;;;0.83;;
74245;SDS011;62601;51.044;13.788;2023-04-24T11:49:50;2.10;;;0.80;;
74245;SDS011;62601;51.044;13.788;2023-04-24T11:52:10;2.43;;;0.83;;
74245;SDS011;62601;51.044;13.788;2023-04-24T11:54:30;0.90;;;0.80;;
74245;SDS011;62601;51.044;13.788;2023-04-24T11:56:50;1.37;;;0.90;;
74245;SDS011;62601;51.044;13.788;2023-04-24T11:59:10;0.80;;;0.80;;
74245;SDS011;62601;51.044;13.788;2023-04-24T12:01:41;1.10;;;0.70;;
74245;SDS011;62601;51.044;13.788;2023-04-24T12:04:02;2.90;;;0.80;;
74245;SDS011;62601;51.044;13.788;2023-04-24T12:06:22;1.10;;;0.93;;
74245;SDS011;62601;51.044;13.788;2023-04-24T12:08:42;1.87;;;0.90;;
74245;SDS011;62601;51.044;13.788;2023-04-24T12:11:05;1.43;;;0.70;;
74245;SDS011;62601;51.044;13.788;2023-04-24T12:13:26;2.50;;;1.00;;
74245;SDS011;62601;51.044;13.788;2023-04-24T12:15:46;1.60;;;0.90;;
74245;SDS011;62601;51.044;13.788;2023-04-24T12:18:06;1.73;;;0.90;;
74245;SDS011;62601;51.044;13.788;2023-04-24T12:20:31;3.90;;;1.20;;
74245;SDS011;62601;51.044;13.788;2023-04-24T12:22:59;2.90;;;1.10;;
74245;SDS011;62601;51.044;13.788;2023-04-24T12:25:19;0.90;;;0.80;;
74245;SDS011;62601;51.044;13.788;2023-04-24T12:27:40;1.20;;;0.80;;
74245;SDS011;62601;51.044;13.788;2023-04-24T12:30:00;1.33;;;0.90;;
74245;SDS011;62601;51.044;13.788;2023-04-24T12:32:21;1.90;;;0.90;;
74245;SDS011;62601;51.044;13.788;2023-04-24T12:34:41;0.80;;;0.80;;
74245;SDS011;62601;51.044;13.788;2023-04-24T12:37:10;0.90;;;0.90;;
74245;SDS011;62601;51.044;13.788;2023-04-24T12:39:30;2.50;;;0.80;;
74245;SDS011;62601;51.044;13.788;2023-04-24T12:41:56;2.83;;;0.80;;
74245;SDS011;62601;51.044;13.788;2023-04-24T12:44:16;1.13;;;0.93;;
74245;SDS011;62601;51.044;13.788;2023-04-24T12:46:36;0.90;;;0.90;;
74245;SDS011;62601;51.044;13.788;2023-04-24T12:48:56;1.57;;;1.00;;
74245;SDS011;62601;51.044;13.788;2023-04-24T12:51:17;4.67;;;0.90;;
74245;SDS011;62601;51.044;13.788;2023-04-24T12:53:37;1.00;;;1.00;;
74245;SDS011;62601;51.044;13.788;2023-04-24T12:55:57;2.50;;;0.93;;
74245;SDS011;62601;51.044;13.788;2023-04-24T12:58:17;1.33;;;1.23;;
74245;SDS011;62601;51.044;13.788;2023-04-24T13:00:38;2.07;;;0.90;;
74245;SDS011;62601;51.044;13.788;2023-04-24T13:02:58;2.83;;;1.10;;
74245;SDS011;62601;51.044;13.788;2023-04-24T13:05:18;1.77;;;1.33;;
74245;SDS011;62601;51.044;13.788;2023-04-24T13:07:38;1.10;;;1.00;;
74245;SDS011;62601;51.044;13.788;2023-04-24T13:09:58;1.33;;;0.80;;
74245;SDS011;62601;51.044;13.788;2023-04-24T13:12:18;1.47;;;1.00;;
74245;SDS011;62601;51.044;13.788;2023-04-24T13:14:40;3.80;;;0.93;;
74245;SDS011;62601;51.044;13.788;2023-04-24T13:17:02;3.23;;;1.60;;
74245;SDS011;62601;51.044;13.788;2023-04-24T13:19:23;1.00;;;1.00;;
74245;SDS011;62601;51.044;13.788;2023-04-24T13:21:45;2.93;;;1.03;;
74245;SDS011;62601;51.044;13.788;2023-04-24T13:24:07;1.33;;;0.90;;
74245;SDS011;62601;51.044;13.788;2023-04-24T13:26:28;2.13;;;1.10;;
74245;SDS011;62601;51.044;13.788;2023-04-24T13:28:53;5.60;;;1.50;;
74245;SDS011;62601;51.044;13.788;2023-04-24T13:31:14;1.10;;;1.00;;
74245;SDS011;62601;51.044;13.788;2023-04-24T13:33:36;0.97;;;0.80;;
74245;SDS011;62601;51.044;13.788;2023-04-24T13:35:57;1.73;;;1.00;;
74245;SDS011;62601;51.044;13.788;2023-04-24T13:38:18;1.40;;;1.30;;
74245;SDS011;62601;51.044;13.788;2023-04-24T13:40:39;2.10;;;1.40;;
74245;SDS011;62601;51.044;13.788;2023-04-24T13:43:00;4.00;;;1.20;;
74245;SDS011;62601;51.044;13.788;2023-04-24T13:45:22;1.17;;;1.00;;
74245;SDS011;62601;51.044;13.788;2023-04-24T13:47:43;1.20;;;1.10;;
74245;SDS011;62601;51.044;13.788;2023-04-24T13:50:05;2.03;;;1.03;;
74245;SDS011;62601;51.044;13.788;2023-04-24T13:52:25;1.10;;;0.93;;
74245;SDS011;62601;51.044;13.788;2023-04-24T13:54:46;3.07;;;1.10;;
74245;SDS011;62601;51.044;13.788;2023-04-24T13:57:08;2.60;;;0.93;;
74245;SDS011;62601;51.044;13.788;2023-04-24T13:59:29;1.20;;;1.10;;
74245;SDS011;62601;51.044;13.788;2023-04-24T14:01:50;1.53;;;1.33;;
74245;SDS011;62601;51.044;13.788;2023-04-24T14:04:11;1.77;;;1.23;;